Terminal Aerodrome Forecast
Issued by NWS

Home | Current Version | Previous Version | Text Only | Print | Product List | Glossary On
Versions: 1 2 3 4 5 6 7 8 9 10 11 12 13 14 15
750
FTUS45 KGGW 231728 AAB
TAFSDY
TAF AMD
KSDY 231728Z 2317/2418 10010KT P6SM -SHRA BKN080
     FM232200 11009KT P6SM VCSH BKN050
     FM240300 08005KT P6SM VCTS SCT025CB SCT100
     FM241000 21005KT P6SM BKN028
     FM241400 23007KT P6SM SCT040=

USA.gov is the U.S. government's official web portal to all federal, state and local government web resources and services.